sensor_id;sensor_type;location;lat;lon;timestamp;temperature;humidity
7349;DHT22;13010;-33.424;-70.614;2023-03-23T00:01:49;19.50;40.40
7349;DHT22;13010;-33.424;-70.614;2023-03-23T00:04:38;19.40;40.10
7349;DHT22;13010;-33.424;-70.614;2023-03-23T00:07:29;19.30;39.50
7349;DHT22;13010;-33.424;-70.614;2023-03-23T00:10:18;19.30;39.10
7349;DHT22;13010;-33.424;-70.614;2023-03-23T00:13:07;19.30;38.90
7349;DHT22;13010;-33.424;-70.614;2023-03-23T00:15:57;19.20;39.90
7349;DHT22;13010;-33.424;-70.614;2023-03-23T00:18:49;19.00;39.70
7349;DHT22;13010;-33.424;-70.614;2023-03-23T00:21:40;18.90;39.60
7349;DHT22;13010;-33.424;-70.614;2023-03-23T00:24:29;18.80;40.60
7349;DHT22;13010;-33.424;-70.614;2023-03-23T00:27:19;18.50;40.10
7349;DHT22;13010;-33.424;-70.614;2023-03-23T00:30:08;18.40;40.30
7349;DHT22;13010;-33.424;-70.614;2023-03-23T00:32:57;18.40;41.70
7349;DHT22;13010;-33.424;-70.614;2023-03-23T00:35:48;18.30;42.40
7349;DHT22;13010;-33.424;-70.614;2023-03-23T00:38:38;18.20;41.80
7349;DHT22;13010;-33.424;-70.614;2023-03-23T00:41:28;18.40;41.00
7349;DHT22;13010;-33.424;-70.614;2023-03-23T00:44:18;18.40;40.70
7349;DHT22;13010;-33.424;-70.614;2023-03-23T00:47:09;18.40;41.20
7349;DHT22;13010;-33.424;-70.614;2023-03-23T00:49:58;18.20;41.80
7349;DHT22;13010;-33.424;-70.614;2023-03-23T00:52:49;18.10;43.00
7349;DHT22;13010;-33.424;-70.614;2023-03-23T00:55:41;18.00;43.60
7349;DHT22;13010;-33.424;-70.614;2023-03-23T00:58:31;17.80;45.10
7349;DHT22;13010;-33.424;-70.614;2023-03-23T01:01:20;17.70;45.90
7349;DHT22;13010;-33.424;-70.614;2023-03-23T01:04:09;17.60;47.60
7349;DHT22;13010;-33.424;-70.614;2023-03-23T01:06:58;17.50;49.00
7349;DHT22;13010;-33.424;-70.614;2023-03-23T01:09:50;17.30;50.10
7349;DHT22;13010;-33.424;-70.614;2023-03-23T01:12:40;17.10;51.60
7349;DHT22;13010;-33.424;-70.614;2023-03-23T01:15:30;17.00;53.50
7349;DHT22;13010;-33.424;-70.614;2023-03-23T01:18:19;17.00;56.20
7349;DHT22;13010;-33.424;-70.614;2023-03-23T01:21:10;17.00;56.90
7349;DHT22;13010;-33.424;-70.614;2023-03-23T01:23:59;17.00;57.50
7349;DHT22;13010;-33.424;-70.614;2023-03-23T01:26:50;17.00;58.30
7349;DHT22;13010;-33.424;-70.614;2023-03-23T01:29:39;17.00;58.60
7349;DHT22;13010;-33.424;-70.614;2023-03-23T01:32:29;16.70;61.20
7349;DHT22;13010;-33.424;-70.614;2023-03-23T01:35:18;16.40;65.50
7349;DHT22;13010;-33.424;-70.614;2023-03-23T01:38:07;16.40;71.30
7349;DHT22;13010;-33.424;-70.614;2023-03-23T01:40:56;16.50;72.60
7349;DHT22;13010;-33.424;-70.614;2023-03-23T01:44:01;16.70;74.10
7349;DHT22;13010;-33.424;-70.614;2023-03-23T01:46:51;16.80;76.20
7349;DHT22;13010;-33.424;-70.614;2023-03-23T01:49:43;16.70;77.60
7349;DHT22;13010;-33.424;-70.614;2023-03-23T01:52:34;16.60;79.90
7349;DHT22;13010;-33.424;-70.614;2023-03-23T01:55:23;16.50;83.00
7349;DHT22;13010;-33.424;-70.614;2023-03-23T01:58:13;16.50;87.20
7349;DHT22;13010;-33.424;-70.614;2023-03-23T02:01:06;16.30;90.50
7349;DHT22;13010;-33.424;-70.614;2023-03-23T02:03:59;16.20;93.30
7349;DHT22;13010;-33.424;-70.614;2023-03-23T02:06:48;16.20;94.30
7349;DHT22;13010;-33.424;-70.614;2023-03-23T02:09:37;16.20;94.80
7349;DHT22;13010;-33.424;-70.614;2023-03-23T02:12:26;16.30;94.70
7349;DHT22;13010;-33.424;-70.614;2023-03-23T02:15:15;16.30;94.90
7349;DHT22;13010;-33.424;-70.614;2023-03-23T02:18:08;16.30;96.00
7349;DHT22;13010;-33.424;-70.614;2023-03-23T02:21:32;16.00;97.30
7349;DHT22;13010;-33.424;-70.614;2023-03-23T02:24:57;15.70;99.90
7349;DHT22;13010;-33.424;-70.614;2023-03-23T02:28:13;15.50;99.90
7349;DHT22;13010;-33.424;-70.614;2023-03-23T02:31:21;15.30;99.90
7349;DHT22;13010;-33.424;-70.614;2023-03-23T02:34:20;15.10;99.90
7349;DHT22;13010;-33.424;-70.614;2023-03-23T02:37:16;14.90;99.90
7349;DHT22;13010;-33.424;-70.614;2023-03-23T02:40:11;14.80;99.90
7349;DHT22;13010;-33.424;-70.614;2023-03-23T02:43:03;14.80;99.90
7349;DHT22;13010;-33.424;-70.614;2023-03-23T02:45:56;15.00;99.90
7349;DHT22;13010;-33.424;-70.614;2023-03-23T02:48:47;15.10;99.90
7349;DHT22;13010;-33.424;-70.614;2023-03-23T02:51:39;15.10;99.90
7349;DHT22;13010;-33.424;-70.614;2023-03-23T02:54:29;14.80;99.90
7349;DHT22;13010;-33.424;-70.614;2023-03-23T02:57:19;14.50;99.90
7349;DHT22;13010;-33.424;-70.614;2023-03-23T03:00:12;14.30;99.90
7349;DHT22;13010;-33.424;-70.614;2023-03-23T03:03:02;14.10;99.90
7349;DHT22;13010;-33.424;-70.614;2023-03-23T03:05:56;14.10;99.90
7349;DHT22;13010;-33.424;-70.614;2023-03-23T03:08:52;14.00;99.90
7349;DHT22;13010;-33.424;-70.614;2023-03-23T03:11:45;14.00;99.90
7349;DHT22;13010;-33.424;-70.614;2023-03-23T03:14:38;13.90;99.90
7349;DHT22;13010;-33.424;-70.614;2023-03-23T03:17:32;13.70;99.90
7349;DHT22;13010;-33.424;-70.614;2023-03-23T03:20:24;13.60;99.90
7349;DHT22;13010;-33.424;-70.614;2023-03-23T03:23:15;13.60;99.90
7349;DHT22;13010;-33.424;-70.614;2023-03-23T03:26:08;13.60;99.90
7349;DHT22;13010;-33.424;-70.614;2023-03-23T03:28:59;13.70;99.90
7349;DHT22;13010;-33.424;-70.614;2023-03-23T03:31:49;13.80;99.90
7349;DHT22;13010;-33.424;-70.614;2023-03-23T03:34:41;13.80;99.90
7349;DHT22;13010;-33.424;-70.614;2023-03-23T03:37:34;13.70;99.90
7349;DHT22;13010;-33.424;-70.614;2023-03-23T03:40:25;13.70;99.90
7349;DHT22;13010;-33.424;-70.614;2023-03-23T03:43:15;13.60;99.90
7349;DHT22;13010;-33.424;-70.614;2023-03-23T03:46:04;13.60;99.90
7349;DHT22;13010;-33.424;-70.614;2023-03-23T03:48:53;13.30;99.90
7349;DHT22;13010;-33.424;-70.614;2023-03-23T03:51:42;13.20;99.90
7349;DHT22;13010;-33.424;-70.614;2023-03-23T03:54:31;13.10;99.90
7349;DHT22;13010;-33.424;-70.614;2023-03-23T03:57:20;13.00;99.90
7349;DHT22;13010;-33.424;-70.614;2023-03-23T04:00:12;13.00;99.90
7349;DHT22;13010;-33.424;-70.614;2023-03-23T04:03:02;13.10;99.90
7349;DHT22;13010;-33.424;-70.614;2023-03-23T04:05:51;13.10;99.90
7349;DHT22;13010;-33.424;-70.614;2023-03-23T04:08:41;13.10;99.90
7349;DHT22;13010;-33.424;-70.614;2023-03-23T04:11:30;13.10;99.90
7349;DHT22;13010;-33.424;-70.614;2023-03-23T04:14:19;13.30;99.90
7349;DHT22;13010;-33.424;-70.614;2023-03-23T04:17:10;13.40;99.90
7349;DHT22;13010;-33.424;-70.614;2023-03-23T04:20:01;13.30;99.90
7349;DHT22;13010;-33.424;-70.614;2023-03-23T04:22:53;13.20;99.90
7349;DHT22;13010;-33.424;-70.614;2023-03-23T04:25:41;13.10;99.90
7349;DHT22;13010;-33.424;-70.614;2023-03-23T04:28:30;13.00;99.90
7349;DHT22;13010;-33.424;-70.614;2023-03-23T04:31:21;13.00;99.90
7349;DHT22;13010;-33.424;-70.614;2023-03-23T04:34:12;13.20;99.90
7349;DHT22;13010;-33.424;-70.614;2023-03-23T04:37:02;13.20;99.90
7349;DHT22;13010;-33.424;-70.614;2023-03-23T04:39:51;13.10;99.90
7349;DHT22;13010;-33.424;-70.614;2023-03-23T04:42:46;13.10;99.90
7349;DHT22;13010;-33.424;-70.614;2023-03-23T04:45:38;13.10;99.90
7349;DHT22;13010;-33.424;-70.614;2023-03-23T04:48:32;13.20;99.90
7349;DHT22;13010;-33.424;-70.614;2023-03-23T04:51:22;13.10;99.90
7349;DHT22;13010;-33.424;-70.614;2023-03-23T04:54:13;13.00;99.90
7349;DHT22;13010;-33.424;-70.614;2023-03-23T04:57:02;13.10;99.90
7349;DHT22;13010;-33.424;-70.614;2023-03-23T04:59:54;13.10;99.90
7349;DHT22;13010;-33.424;-70.614;2023-03-23T05:02:43;13.10;99.90
7349;DHT22;13010;-33.424;-70.614;2023-03-23T05:05:37;13.10;99.90
7349;DHT22;13010;-33.424;-70.614;2023-03-23T05:08:28;13.00;99.90
7349;DHT22;13010;-33.424;-70.614;2023-03-23T05:11:17;12.90;99.90
7349;DHT22;13010;-33.424;-70.614;2023-03-23T05:14:06;13.10;99.90
7349;DHT22;13010;-33.424;-70.614;2023-03-23T05:16:55;13.20;99.90
7349;DHT22;13010;-33.424;-70.614;2023-03-23T05:19:44;13.20;99.90
7349;DHT22;13010;-33.424;-70.614;2023-03-23T05:22:33;13.10;99.90
7349;DHT22;13010;-33.424;-70.614;2023-03-23T05:25:24;12.90;99.90
7349;DHT22;13010;-33.424;-70.614;2023-03-23T05:28:13;12.80;99.90
7349;DHT22;13010;-33.424;-70.614;2023-03-23T05:31:02;12.70;99.90
7349;DHT22;13010;-33.424;-70.614;2023-03-23T05:33:51;12.50;99.90
7349;DHT22;13010;-33.424;-70.614;2023-03-23T05:36:40;12.40;99.90
7349;DHT22;13010;-33.424;-70.614;2023-03-23T05:39:30;12.30;99.90
7349;DHT22;13010;-33.424;-70.614;2023-03-23T05:42:21;12.30;99.90
7349;DHT22;13010;-33.424;-70.614;2023-03-23T05:45:11;12.10;99.90
7349;DHT22;13010;-33.424;-70.614;2023-03-23T05:47:59;12.00;99.90
7349;DHT22;13010;-33.424;-70.614;2023-03-23T05:50:48;11.90;99.90
7349;DHT22;13010;-33.424;-70.614;2023-03-23T05:53:37;11.90;99.90
7349;DHT22;13010;-33.424;-70.614;2023-03-23T05:56:27;11.90;99.90
7349;DHT22;13010;-33.424;-70.614;2023-03-23T05:59:18;11.80;99.90
7349;DHT22;13010;-33.424;-70.614;2023-03-23T06:02:07;11.80;99.90
7349;DHT22;13010;-33.424;-70.614;2023-03-23T06:04:56;11.80;99.90
7349;DHT22;13010;-33.424;-70.614;2023-03-23T06:07:45;12.00;99.90
7349;DHT22;13010;-33.424;-70.614;2023-03-23T06:10:33;12.10;99.90
7349;DHT22;13010;-33.424;-70.614;2023-03-23T06:13:22;12.20;99.90
7349;DHT22;13010;-33.424;-70.614;2023-03-23T06:16:13;12.00;99.90
7349;DHT22;13010;-33.424;-70.614;2023-03-23T06:19:02;11.90;99.90
7349;DHT22;13010;-33.424;-70.614;2023-03-23T06:21:52;11.90;99.90
7349;DHT22;13010;-33.424;-70.614;2023-03-23T06:24:41;11.80;99.90
7349;DHT22;13010;-33.424;-70.614;2023-03-23T06:27:30;11.70;99.90
7349;DHT22;13010;-33.424;-70.614;2023-03-23T06:30:19;11.70;99.90
7349;DHT22;13010;-33.424;-70.614;2023-03-23T06:33:10;11.70;99.90
7349;DHT22;13010;-33.424;-70.614;2023-03-23T06:35:59;11.60;99.90
7349;DHT22;13010;-33.424;-70.614;2023-03-23T06:38:48;11.60;99.90
7349;DHT22;13010;-33.424;-70.614;2023-03-23T06:41:37;11.40;99.90
7349;DHT22;13010;-33.424;-70.614;2023-03-23T06:44:26;11.30;99.90
7349;DHT22;13010;-33.424;-70.614;2023-03-23T06:47:15;11.20;99.90
7349;DHT22;13010;-33.424;-70.614;2023-03-23T06:50:06;11.10;99.90
7349;DHT22;13010;-33.424;-70.614;2023-03-23T06:52:55;11.20;99.90
7349;DHT22;13010;-33.424;-70.614;2023-03-23T06:55:45;11.20;99.90
7349;DHT22;13010;-33.424;-70.614;2023-03-23T06:58:33;11.20;99.90
7349;DHT22;13010;-33.424;-70.614;2023-03-23T07:01:23;11.10;99.90
7349;DHT22;13010;-33.424;-70.614;2023-03-23T07:04:13;11.10;99.90
7349;DHT22;13010;-33.424;-70.614;2023-03-23T07:07:04;11.10;99.90
7349;DHT22;13010;-33.424;-70.614;2023-03-23T07:09:53;11.10;99.90
7349;DHT22;13010;-33.424;-70.614;2023-03-23T07:12:42;11.20;99.90
7349;DHT22;13010;-33.424;-70.614;2023-03-23T07:15:31;11.20;99.90
7349;DHT22;13010;-33.424;-70.614;2023-03-23T07:18:20;11.10;99.90
7349;DHT22;13010;-33.424;-70.614;2023-03-23T07:21:09;11.00;99.90
7349;DHT22;13010;-33.424;-70.614;2023-03-23T07:24:00;10.90;99.90
7349;DHT22;13010;-33.424;-70.614;2023-03-23T07:26:49;10.90;99.90
7349;DHT22;13010;-33.424;-70.614;2023-03-23T07:29:38;10.90;99.90
7349;DHT22;13010;-33.424;-70.614;2023-03-23T07:32:27;10.90;99.90
7349;DHT22;13010;-33.424;-70.614;2023-03-23T07:35:15;10.90;99.90
7349;DHT22;13010;-33.424;-70.614;2023-03-23T07:38:04;10.90;99.90
7349;DHT22;13010;-33.424;-70.614;2023-03-23T07:40:56;10.90;99.90
7349;DHT22;13010;-33.424;-70.614;2023-03-23T07:43:45;10.90;99.90
7349;DHT22;13010;-33.424;-70.614;2023-03-23T07:46:34;10.90;99.90
7349;DHT22;13010;-33.424;-70.614;2023-03-23T07:49:23;10.90;99.90
7349;DHT22;13010;-33.424;-70.614;2023-03-23T07:52:12;10.90;99.90
7349;DHT22;13010;-33.424;-70.614;2023-03-23T07:55:02;10.80;99.90
7349;DHT22;13010;-33.424;-70.614;2023-03-23T07:57:54;10.80;99.90
7349;DHT22;13010;-33.424;-70.614;2023-03-23T08:00:43;10.70;99.90
7349;DHT22;13010;-33.424;-70.614;2023-03-23T08:03:32;10.80;99.90
7349;DHT22;13010;-33.424;-70.614;2023-03-23T08:06:20;10.80;99.90
7349;DHT22;13010;-33.424;-70.614;2023-03-23T08:09:10;10.70;99.90
7349;DHT22;13010;-33.424;-70.614;2023-03-23T08:12:00;10.60;99.90
7349;DHT22;13010;-33.424;-70.614;2023-03-23T08:14:53;10.60;99.90
7349;DHT22;13010;-33.424;-70.614;2023-03-23T08:17:42;10.60;99.90
7349;DHT22;13010;-33.424;-70.614;2023-03-23T08:20:31;10.60;99.90
7349;DHT22;13010;-33.424;-70.614;2023-03-23T08:23:21;10.70;99.90
7349;DHT22;13010;-33.424;-70.614;2023-03-23T08:26:10;10.70;99.90
7349;DHT22;13010;-33.424;-70.614;2023-03-23T08:29:01;10.70;99.90
7349;DHT22;13010;-33.424;-70.614;2023-03-23T08:31:52;10.80;99.90
7349;DHT22;13010;-33.424;-70.614;2023-03-23T08:34:41;10.70;99.90
7349;DHT22;13010;-33.424;-70.614;2023-03-23T08:40:44;10.60;99.90
7349;DHT22;13010;-33.424;-70.614;2023-03-23T08:43:34;10.70;99.90
7349;DHT22;13010;-33.424;-70.614;2023-03-23T08:46:24;10.60;99.90
7349;DHT22;13010;-33.424;-70.614;2023-03-23T08:49:13;10.60;99.90
7349;DHT22;13010;-33.424;-70.614;2023-03-23T08:52:02;10.40;99.90
7349;DHT22;13010;-33.424;-70.614;2023-03-23T08:54:53;10.30;99.90
7349;DHT22;13010;-33.424;-70.614;2023-03-23T08:57:45;10.30;99.90
7349;DHT22;13010;-33.424;-70.614;2023-03-23T09:00:33;10.20;99.90
7349;DHT22;13010;-33.424;-70.614;2023-03-23T09:03:22;10.20;99.90
7349;DHT22;13010;-33.424;-70.614;2023-03-23T09:06:11;10.20;99.90
7349;DHT22;13010;-33.424;-70.614;2023-03-23T09:09:00;10.20;99.90
7349;DHT22;13010;-33.424;-70.614;2023-03-23T09:11:53;10.30;99.90
7349;DHT22;13010;-33.424;-70.614;2023-03-23T09:14:44;10.20;99.90
7349;DHT22;13010;-33.424;-70.614;2023-03-23T09:17:33;10.10;99.90
7349;DHT22;13010;-33.424;-70.614;2023-03-23T09:20:25;10.10;99.90
7349;DHT22;13010;-33.424;-70.614;2023-03-23T09:23:14;10.10;99.90
7349;DHT22;13010;-33.424;-70.614;2023-03-23T09:26:04;10.00;99.90
7349;DHT22;13010;-33.424;-70.614;2023-03-23T09:28:55;9.90;99.90
7349;DHT22;13010;-33.424;-70.614;2023-03-23T09:31:48;9.80;99.90
7349;DHT22;13010;-33.424;-70.614;2023-03-23T09:34:37;9.70;99.90
7349;DHT22;13010;-33.424;-70.614;2023-03-23T09:37:25;9.80;99.90
7349;DHT22;13010;-33.424;-70.614;2023-03-23T09:40:16;9.90;99.90
7349;DHT22;13010;-33.424;-70.614;2023-03-23T09:43:34;9.80;99.90
7349;DHT22;13010;-33.424;-70.614;2023-03-23T09:46:47;9.60;99.90
7349;DHT22;13010;-33.424;-70.614;2023-03-23T09:49:42;9.60;99.90
7349;DHT22;13010;-33.424;-70.614;2023-03-23T09:52:38;9.70;99.90
7349;DHT22;13010;-33.424;-70.614;2023-03-23T09:55:28;9.60;99.90
7349;DHT22;13010;-33.424;-70.614;2023-03-23T09:58:20;9.70;99.90
7349;DHT22;13010;-33.424;-70.614;2023-03-23T10:01:16;9.70;99.90
7349;DHT22;13010;-33.424;-70.614;2023-03-23T10:04:12;9.60;99.90
7349;DHT22;13010;-33.424;-70.614;2023-03-23T10:07:09;9.50;99.90
7349;DHT22;13010;-33.424;-70.614;2023-03-23T10:10:00;9.40;99.90
7349;DHT22;13010;-33.424;-70.614;2023-03-23T10:12:54;9.30;99.90
7349;DHT22;13010;-33.424;-70.614;2023-03-23T10:15:45;9.30;99.90
7349;DHT22;13010;-33.424;-70.614;2023-03-23T10:18:38;9.40;99.90
7349;DHT22;13010;-33.424;-70.614;2023-03-23T10:21:32;9.40;99.90
7349;DHT22;13010;-33.424;-70.614;2023-03-23T10:24:29;9.50;99.90
7349;DHT22;13010;-33.424;-70.614;2023-03-23T10:27:23;9.40;99.90
7349;DHT22;13010;-33.424;-70.614;2023-03-23T10:30:19;9.30;99.90
7349;DHT22;13010;-33.424;-70.614;2023-03-23T10:33:14;9.10;99.90
7349;DHT22;13010;-33.424;-70.614;2023-03-23T10:36:07;9.00;99.90
7349;DHT22;13010;-33.424;-70.614;2023-03-23T10:39:02;9.00;99.90
7349;DHT22;13010;-33.424;-70.614;2023-03-23T10:41:54;9.00;99.90
7349;DHT22;13010;-33.424;-70.614;2023-03-23T10:44:44;9.10;99.90
7349;DHT22;13010;-33.424;-70.614;2023-03-23T10:47:33;9.00;99.90
7349;DHT22;13010;-33.424;-70.614;2023-03-23T10:50:27;8.90;99.90
7349;DHT22;13010;-33.424;-70.614;2023-03-23T10:53:19;8.90;99.90
7349;DHT22;13010;-33.424;-70.614;2023-03-23T10:56:23;8.80;99.90
7349;DHT22;13010;-33.424;-70.614;2023-03-23T10:59:14;8.80;99.90
7349;DHT22;13010;-33.424;-70.614;2023-03-23T11:02:13;8.80;99.90
7349;DHT22;13010;-33.424;-70.614;2023-03-23T11:05:11;8.80;99.90
7349;DHT22;13010;-33.424;-70.614;2023-03-23T11:08:02;8.90;99.90
7349;DHT22;13010;-33.424;-70.614;2023-03-23T11:10:52;8.90;99.90
7349;DHT22;13010;-33.424;-70.614;2023-03-23T11:13:44;9.00;99.90
7349;DHT22;13010;-33.424;-70.614;2023-03-23T11:16:34;9.20;99.90
7349;DHT22;13010;-33.424;-70.614;2023-03-23T11:19:24;9.30;99.90
7349;DHT22;13010;-33.424;-70.614;2023-03-23T11:22:21;9.40;99.90
7349;DHT22;13010;-33.424;-70.614;2023-03-23T11:25:14;9.60;99.90
7349;DHT22;13010;-33.424;-70.614;2023-03-23T11:28:03;9.60;99.90
7349;DHT22;13010;-33.424;-70.614;2023-03-23T11:30:54;10.00;99.90
7349;DHT22;13010;-33.424;-70.614;2023-03-23T11:33:54;10.00;99.90
7349;DHT22;13010;-33.424;-70.614;2023-03-23T11:36:48;10.20;99.90
7349;DHT22;13010;-33.424;-70.614;2023-03-23T11:39:48;10.50;99.90
7349;DHT22;13010;-33.424;-70.614;2023-03-23T11:42:42;10.90;99.90
7349;DHT22;13010;-33.424;-70.614;2023-03-23T11:45:36;11.30;99.90
7349;DHT22;13010;-33.424;-70.614;2023-03-23T11:48:35;13.30;99.90
7349;DHT22;13010;-33.424;-70.614;2023-03-23T11:51:33;16.70;99.90
7349;DHT22;13010;-33.424;-70.614;2023-03-23T11:54:30;18.90;99.90
7349;DHT22;13010;-33.424;-70.614;2023-03-23T11:57:23;21.00;99.90
7349;DHT22;13010;-33.424;-70.614;2023-03-23T12:00:19;22.90;99.90
7349;DHT22;13010;-33.424;-70.614;2023-03-23T12:03:30;24.20;99.90
7349;DHT22;13010;-33.424;-70.614;2023-03-23T12:06:32;25.40;99.90
7349;DHT22;13010;-33.424;-70.614;2023-03-23T12:09:32;26.60;99.90
7349;DHT22;13010;-33.424;-70.614;2023-03-23T12:12:30;27.70;99.90
7349;DHT22;13010;-33.424;-70.614;2023-03-23T12:15:25;28.70;99.90
7349;DHT22;13010;-33.424;-70.614;2023-03-23T12:18:22;29.40;99.90
7349;DHT22;13010;-33.424;-70.614;2023-03-23T12:21:22;30.10;98.70
7349;DHT22;13010;-33.424;-70.614;2023-03-23T12:24:21;31.60;85.50
7349;DHT22;13010;-33.424;-70.614;2023-03-23T12:27:20;32.20;72.60
7349;DHT22;13010;-33.424;-70.614;2023-03-23T12:30:24;33.30;56.40
7349;DHT22;13010;-33.424;-70.614;2023-03-23T12:33:28;33.50;45.50
7349;DHT22;13010;-33.424;-70.614;2023-03-23T12:36:32;34.30;39.90
7349;DHT22;13010;-33.424;-70.614;2023-03-23T12:42:57;36.50;28.50
7349;DHT22;13010;-33.424;-70.614;2023-03-23T12:46:14;37.10;24.70
7349;DHT22;13010;-33.424;-70.614;2023-03-23T12:49:07;37.10;21.50
7349;DHT22;13010;-33.424;-70.614;2023-03-23T12:52:09;37.60;19.60
7349;DHT22;13010;-33.424;-70.614;2023-03-23T12:55:04;38.40;16.70
7349;DHT22;13010;-33.424;-70.614;2023-03-23T12:58:01;39.00;14.50
7349;DHT22;13010;-33.424;-70.614;2023-03-23T13:00:59;39.50;13.30
7349;DHT22;13010;-33.424;-70.614;2023-03-23T13:03:53;39.50;12.00
7349;DHT22;13010;-33.424;-70.614;2023-03-23T13:06:44;40.40;10.90
7349;DHT22;13010;-33.424;-70.614;2023-03-23T13:09:43;40.90;8.70
7349;DHT22;13010;-33.424;-70.614;2023-03-23T13:12:34;41.20;7.50
7349;DHT22;13010;-33.424;-70.614;2023-03-23T13:15:36;41.30;7.20
7349;DHT22;13010;-33.424;-70.614;2023-03-23T13:18:36;42.40;6.20
7349;DHT22;13010;-33.424;-70.614;2023-03-23T13:21:32;43.20;5.00
7349;DHT22;13010;-33.424;-70.614;2023-03-23T13:24:27;44.10;2.90
7349;DHT22;13010;-33.424;-70.614;2023-03-23T13:27:24;43.80;2.70
7349;DHT22;13010;-33.424;-70.614;2023-03-23T13:30:21;45.30;1.80
7349;DHT22;13010;-33.424;-70.614;2023-03-23T13:33:16;45.10;1.00
7349;DHT22;13010;-33.424;-70.614;2023-03-23T13:36:12;45.60;1.00
7349;DHT22;13010;-33.424;-70.614;2023-03-23T13:39:02;46.20;1.00
7349;DHT22;13010;-33.424;-70.614;2023-03-23T13:42:05;45.20;1.00
7349;DHT22;13010;-33.424;-70.614;2023-03-23T13:45:18;46.70;1.00
7349;DHT22;13010;-33.424;-70.614;2023-03-23T13:48:23;47.60;1.00
7349;DHT22;13010;-33.424;-70.614;2023-03-23T13:51:33;45.30;1.00
7349;DHT22;13010;-33.424;-70.614;2023-03-23T13:54:29;44.70;1.00
7349;DHT22;13010;-33.424;-70.614;2023-03-23T13:57:26;47.60;1.00
7349;DHT22;13010;-33.424;-70.614;2023-03-23T14:00:49;47.70;1.00
7349;DHT22;13010;-33.424;-70.614;2023-03-23T14:03:39;49.80;1.00
7349;DHT22;13010;-33.424;-70.614;2023-03-23T14:06:35;49.80;1.00
7349;DHT22;13010;-33.424;-70.614;2023-03-23T14:09:27;47.50;1.00
7349;DHT22;13010;-33.424;-70.614;2023-03-23T14:12:19;48.90;1.00
7349;DHT22;13010;-33.424;-70.614;2023-03-23T14:15:13;50.20;1.00
7349;DHT22;13010;-33.424;-70.614;2023-03-23T14:18:05;49.10;1.00
7349;DHT22;13010;-33.424;-70.614;2023-03-23T14:20:58;48.30;1.00
7349;DHT22;13010;-33.424;-70.614;2023-03-23T14:23:47;47.50;1.00
7349;DHT22;13010;-33.424;-70.614;2023-03-23T14:26:36;48.90;1.00
7349;DHT22;13010;-33.424;-70.614;2023-03-23T14:29:26;50.60;1.00
7349;DHT22;13010;-33.424;-70.614;2023-03-23T14:32:16;50.50;1.00
7349;DHT22;13010;-33.424;-70.614;2023-03-23T14:35:11;48.10;1.00
7349;DHT22;13010;-33.424;-70.614;2023-03-23T14:38:02;49.20;1.00
7349;DHT22;13010;-33.424;-70.614;2023-03-23T14:40:52;49.20;1.00
7349;DHT22;13010;-33.424;-70.614;2023-03-23T14:43:42;49.60;1.00
7349;DHT22;13010;-33.424;-70.614;2023-03-23T14:46:32;50.40;1.00
7349;DHT22;13010;-33.424;-70.614;2023-03-23T14:49:25;48.40;1.00
7349;DHT22;13010;-33.424;-70.614;2023-03-23T14:52:18;50.60;1.00
7349;DHT22;13010;-33.424;-70.614;2023-03-23T14:55:13;52.40;1.00
7349;DHT22;13010;-33.424;-70.614;2023-03-23T14:58:09;52.50;1.00
7349;DHT22;13010;-33.424;-70.614;2023-03-23T15:01:02;52.60;1.00
7349;DHT22;13010;-33.424;-70.614;2023-03-23T15:03:56;50.30;1.00
7349;DHT22;13010;-33.424;-70.614;2023-03-23T15:06:50;50.40;1.00
7349;DHT22;13010;-33.424;-70.614;2023-03-23T15:09:43;47.50;1.00
7349;DHT22;13010;-33.424;-70.614;2023-03-23T15:12:34;48.90;1.00
7349;DHT22;13010;-33.424;-70.614;2023-03-23T15:15:25;52.10;1.00
7349;DHT22;13010;-33.424;-70.614;2023-03-23T15:18:30;49.00;1.00
7349;DHT22;13010;-33.424;-70.614;2023-03-23T15:21:24;49.20;1.00
7349;DHT22;13010;-33.424;-70.614;2023-03-23T15:24:26;52.10;1.00
7349;DHT22;13010;-33.424;-70.614;2023-03-23T15:27:25;51.60;1.00
7349;DHT22;13010;-33.424;-70.614;2023-03-23T15:30:27;53.10;1.00
7349;DHT22;13010;-33.424;-70.614;2023-03-23T15:33:16;51.60;1.00
7349;DHT22;13010;-33.424;-70.614;2023-03-23T15:36:17;52.20;1.00
7349;DHT22;13010;-33.424;-70.614;2023-03-23T15:39:09;51.80;1.00
7349;DHT22;13010;-33.424;-70.614;2023-03-23T15:41:59;51.70;1.00
7349;DHT22;13010;-33.424;-70.614;2023-03-23T15:45:02;51.40;1.00
7349;DHT22;13010;-33.424;-70.614;2023-03-23T15:47:51;49.60;1.00
7349;DHT22;13010;-33.424;-70.614;2023-03-23T15:50:41;49.30;1.00
7349;DHT22;13010;-33.424;-70.614;2023-03-23T15:53:32;52.10;1.00
7349;DHT22;13010;-33.424;-70.614;2023-03-23T15:56:22;50.20;1.00
7349;DHT22;13010;-33.424;-70.614;2023-03-23T15:59:14;52.50;1.00
7349;DHT22;13010;-33.424;-70.614;2023-03-23T16:02:18;49.60;1.00
7349;DHT22;13010;-33.424;-70.614;2023-03-23T16:05:10;51.50;1.00
7349;DHT22;13010;-33.424;-70.614;2023-03-23T16:08:00;48.50;1.00
7349;DHT22;13010;-33.424;-70.614;2023-03-23T16:10:49;47.90;1.00
7349;DHT22;13010;-33.424;-70.614;2023-03-23T16:13:38;51.10;1.00
7349;DHT22;13010;-33.424;-70.614;2023-03-23T16:16:28;51.20;1.00
7349;DHT22;13010;-33.424;-70.614;2023-03-23T16:19:20;48.90;1.00
7349;DHT22;13010;-33.424;-70.614;2023-03-23T16:22:09;47.80;1.00
7349;DHT22;13010;-33.424;-70.614;2023-03-23T16:24:58;46.80;1.00
7349;DHT22;13010;-33.424;-70.614;2023-03-23T16:27:47;49.30;1.00
7349;DHT22;13010;-33.424;-70.614;2023-03-23T16:30:37;51.20;1.00
7349;DHT22;13010;-33.424;-70.614;2023-03-23T16:33:26;51.50;1.00
7349;DHT22;13010;-33.424;-70.614;2023-03-23T16:36:17;49.40;1.00
7349;DHT22;13010;-33.424;-70.614;2023-03-23T16:39:06;51.50;1.00
7349;DHT22;13010;-33.424;-70.614;2023-03-23T16:41:55;51.20;1.00
7349;DHT22;13010;-33.424;-70.614;2023-03-23T16:44:44;50.70;1.00
7349;DHT22;13010;-33.424;-70.614;2023-03-23T16:47:35;50.30;1.00
7349;DHT22;13010;-33.424;-70.614;2023-03-23T16:50:24;49.80;1.00
7349;DHT22;13010;-33.424;-70.614;2023-03-23T16:53:14;49.60;1.00
7349;DHT22;13010;-33.424;-70.614;2023-03-23T16:56:07;48.10;1.00
7349;DHT22;13010;-33.424;-70.614;2023-03-23T16:59:01;47.20;1.00
7349;DHT22;13010;-33.424;-70.614;2023-03-23T17:01:52;44.70;1.00
7349;DHT22;13010;-33.424;-70.614;2023-03-23T17:04:45;40.30;1.00
7349;DHT22;13010;-33.424;-70.614;2023-03-23T17:07:34;34.50;1.00
7349;DHT22;13010;-33.424;-70.614;2023-03-23T17:10:27;32.00;3.40
7349;DHT22;13010;-33.424;-70.614;2023-03-23T17:13:16;29.70;6.80
7349;DHT22;13010;-33.424;-70.614;2023-03-23T17:16:06;28.10;9.50
7349;DHT22;13010;-33.424;-70.614;2023-03-23T17:18:55;27.30;12.00
7349;DHT22;13010;-33.424;-70.614;2023-03-23T17:21:44;26.90;14.80
7349;DHT22;13010;-33.424;-70.614;2023-03-23T17:24:33;26.90;16.30
7349;DHT22;13010;-33.424;-70.614;2023-03-23T17:27:24;27.20;17.70
7349;DHT22;13010;-33.424;-70.614;2023-03-23T17:30:15;27.10;16.20
7349;DHT22;13010;-33.424;-70.614;2023-03-23T17:33:04;27.00;18.20
7349;DHT22;13010;-33.424;-70.614;2023-03-23T17:35:53;29.30;18.00
7349;DHT22;13010;-33.424;-70.614;2023-03-23T17:38:41;33.20;12.30
7349;DHT22;13010;-33.424;-70.614;2023-03-23T17:41:30;33.90;9.40
7349;DHT22;13010;-33.424;-70.614;2023-03-23T17:44:21;35.40;9.00
7349;DHT22;13010;-33.424;-70.614;2023-03-23T17:47:10;35.90;8.00
7349;DHT22;13010;-33.424;-70.614;2023-03-23T17:49:59;34.40;9.00